Time;durP1;ratioP1;P1;durP2;ratioP2;P2;SDS_P1;SDS_P2;PMS_P1;PMS_P2;Temp;Humidity;BMP_temperature;BMP_pressure;BME280_temperature;BME280_humidity;BME280_pressure;Samples;Min_cycle;Max_cycle;Signal;HPM_P1;HPM_P2
2023/07/07 00:00:47;;;;;;;4.38;2.05;;;15.00;99.90;;;14.51;100.00;101142.63;4183635;28;20025;-75
2023/07/07 00:02:48;;;;;;;;;;;15.00;99.90;;;14.46;100.00;101139.63;4167586;28;20026;-75
2023/07/07 00:04:48;;;;;;;6.15;2.25;;;15.00;99.90;;;14.43;100.00;101132.03;4184674;28;19913;-75
2023/07/07 00:06:49;;;;;;;3.50;2.22;;;14.90;99.90;;;14.43;100.00;101137.34;4184499;28;20029;-75
2023/07/07 00:08:51;;;;;;;5.57;2.00;;;14.90;99.90;;;14.42;100.00;101131.22;4201460;28;20187;-75
2023/07/07 00:10:53;;;;;;;8.40;2.25;;;14.90;99.90;;;14.44;100.00;101139.00;4187406;28;20088;-75
2023/07/07 00:12:54;;;;;;;3.97;2.10;;;14.90;99.90;;;14.44;100.00;101141.66;4187486;28;20049;-75
2023/07/07 00:14:54;;;;;;;3.13;2.20;;;14.90;99.90;;;14.38;100.00;101130.72;4169969;28;20037;-75
2023/07/07 00:17:01;;;;;;;6.40;2.17;;;14.90;99.90;;;14.38;100.00;101130.72;4169889;28;20040;-75
2023/07/07 00:19:02;;;;;;;4.28;1.90;;;14.90;99.90;;;14.41;100.00;101137.50;4154496;28;20429;-75
2023/07/07 00:21:03;;;;;;;6.65;2.33;;;14.90;99.90;;;14.30;100.00;101117.47;4169633;28;20049;-76
2023/07/07 00:23:04;;;;;;;5.13;2.13;;;14.90;99.90;;;14.30;100.00;101120.13;4187693;28;20112;-76
2023/07/07 00:25:07;;;;;;;4.95;2.22;;;14.90;99.90;;;14.40;100.00;101131.38;4187206;28;20087;-75
2023/07/07 00:27:08;;;;;;;6.38;2.03;;;14.90;99.90;;;14.38;100.00;101133.38;4187578;28;20036;-75
2023/07/07 00:29:09;;;;;;;3.60;1.98;;;14.90;99.90;;;14.34;100.00;101121.44;4187502;28;20024;-75
2023/07/07 00:31:10;;;;;;;5.88;2.10;;;14.90;99.90;;;14.37;100.00;101118.44;4169719;28;20029;-75
2023/07/07 00:33:11;;;;;;;5.22;2.58;;;14.90;99.90;;;14.38;100.00;101116.63;4169682;28;20099;-75
2023/07/07 00:35:12;;;;;;;4.97;2.63;;;14.80;99.90;;;14.34;100.00;101110.81;4187193;28;20025;-75
2023/07/07 00:37:13;;;;;;;3.30;2.10;;;14.90;99.90;;;14.40;100.00;101114.63;4153302;28;20061;-75
2023/07/07 00:39:14;;;;;;;4.25;2.42;;;14.90;99.90;;;14.32;100.00;101107.53;4187051;28;20103;-75
2023/07/07 00:41:15;;;;;;;5.60;1.60;;;14.90;99.90;;;14.39;100.00;101115.63;4187209;28;20039;-75
2023/07/07 00:43:19;;;;;;;4.28;2.10;;;14.90;99.90;;;14.35;100.00;101103.69;4187344;28;20036;-75
2023/07/07 00:45:21;;;;;;;5.68;2.47;;;14.80;99.90;;;14.30;100.00;101106.84;4169676;28;20401;-75
2023/07/07 00:47:22;;;;;;;6.63;2.92;;;14.80;99.90;;;14.21;100.00;101102.56;4187146;28;20029;-75
2023/07/07 00:49:23;;;;;;;7.90;1.80;;;14.80;99.90;;;14.24;100.00;101101.38;4169516;28;20109;-75
2023/07/07 00:51:32;;;;;;;6.20;2.38;;;14.70;99.90;;;14.16;100.00;101098.75;4169590;28;20029;-75
2023/07/07 00:53:34;;;;;;;3.92;2.20;;;14.70;99.90;;;14.17;100.00;101097.75;4169761;28;20147;-76
2023/07/07 00:55:46;;;;;;;5.07;2.50;;;14.70;99.90;;;14.15;100.00;101105.91;4185802;28;20388;-75
2023/07/07 00:57:48;;;;;;;5.18;2.15;;;14.60;99.90;;;14.08;100.00;101089.00;4169822;28;20030;-75
2023/07/07 00:59:49;;;;;;;4.03;2.15;;;14.60;99.90;;;14.10;100.00;101092.28;4169310;28;20043;-75
2023/07/07 01:01:56;;;;;;;4.55;2.38;;;14.60;99.90;;;14.13;100.00;101099.09;4186766;28;20040;-75
2023/07/07 01:04:07;;;;;;;4.43;2.10;;;14.60;99.90;;;14.09;100.00;101093.31;4186841;28;20100;-75
2023/07/07 01:06:14;;;;;;;7.03;2.33;;;14.60;99.90;;;14.04;100.00;101079.72;4189281;28;20485;-75
2023/07/07 01:08:16;;;;;;;3.72;2.28;;;14.60;99.90;;;14.05;100.00;101085.84;4185686;28;20025;-75
2023/07/07 01:10:18;;;;;;;4.10;1.90;;;14.60;99.90;;;14.02;100.00;101080.88;4186676;28;20029;-75
2023/07/07 01:12:19;;;;;;;4.70;2.03;;;14.50;99.90;;;14.02;100.00;101086.19;4169013;28;20097;-75
2023/07/07 01:14:25;;;;;;;7.55;2.40;;;14.50;99.90;;;13.85;100.00;101058.91;4186777;28;20021;-75
2023/07/07 01:16:52;;;;;;;3.30;2.10;;;14.50;99.90;;;14.00;100.00;101078.41;4186717;28;20061;-75
2023/07/07 01:19:34;;;;;;;5.20;2.65;;;14.50;99.90;;;13.97;100.00;101078.75;4184050;28;20025;-75
2023/07/07 01:21:52;;;;;;;5.38;2.25;;;14.50;99.90;;;13.92;100.00;101072.31;4119673;28;20074;-75
2023/07/07 01:24:08;;;;;;;3.80;2.28;;;14.40;99.90;;;13.93;100.00;101081.91;4149392;28;20041;-75
2023/07/07 01:26:27;;;;;;;6.80;2.75;;;14.40;99.90;;;13.86;100.00;101071.13;4169874;28;20040;-75
2023/07/07 01:29:03;;;;;;;4.38;2.53;;;14.40;99.90;;;13.81;100.00;101070.81;4186082;28;20056;-75
2023/07/07 01:31:19;;;;;;;5.60;3.67;;;14.30;99.90;;;13.73;100.00;101066.38;4201674;28;20032;-75
2023/07/07 01:33:29;;;;;;;4.22;2.53;;;14.30;99.90;;;13.66;100.00;101064.56;4168936;28;20025;-75
2023/07/07 01:35:29;;;;;;;5.25;2.75;;;14.20;99.90;;;13.64;100.00;101067.38;4169051;28;20041;-75
2023/07/07 01:37:30;;;;;;;3.90;2.55;;;14.20;99.90;;;13.61;100.00;101069.53;4168678;28;20022;-75
2023/07/07 01:39:32;;;;;;;4.57;2.50;;;14.10;99.90;;;13.50;100.00;101061.94;4186252;28;20112;-76
2023/07/07 01:42:02;;;;;;;4.75;2.20;;;14.10;99.90;;;13.41;100.00;101047.84;4186162;28;20049;-75
2023/07/07 01:44:32;;;;;;;6.43;2.15;;;14.00;99.90;;;13.46;100.00;101058.78;4186372;28;20500;-75
2023/07/07 01:47:00;;;;;;;5.30;2.20;;;14.00;99.90;;;13.42;100.00;101051.31;4154147;28;20041;-75
2023/07/07 01:49:24;;;;;;;3.25;2.38;;;13.90;99.90;;;13.35;100.00;101061.75;4174903;28;20024;-75
2023/07/07 01:51:33;;;;;;;5.50;3.00;;;13.90;99.90;;;13.31;100.00;101063.09;4185993;28;20108;-75
2023/07/07 01:53:36;;;;;;;3.88;2.60;;;13.80;99.90;;;13.26;100.00;101052.19;4191239;28;20024;-75
2023/07/07 01:55:44;;;;;;;4.18;2.70;;;13.80;99.90;;;13.26;100.00;101058.28;4168396;28;20032;-75
2023/07/07 01:57:49;;;;;;;5.63;2.60;;;13.80;99.90;;;13.18;100.00;101041.56;4168658;28;20030;-75
2023/07/07 01:59:51;;;;;;;5.95;2.72;;;13.70;99.90;;;13.20;100.00;101048.34;4186172;28;20029;-76
2023/07/07 02:01:52;;;;;;;4.78;2.70;;;13.70;99.90;;;13.22;100.00;101053.50;4168282;28;20089;-75
2023/07/07 02:03:53;;;;;;;4.32;2.83;;;13.70;99.90;;;13.20;100.00;101051.00;4185782;28;20029;-75
2023/07/07 02:05:54;;;;;;;4.97;2.70;;;13.70;99.90;;;13.19;100.00;101045.88;4167917;28;20037;-75
2023/07/07 02:07:55;;;;;;;3.55;2.60;;;13.70;99.90;;;13.17;100.00;101039.91;4185950;28;20388;-75
2023/07/07 02:09:56;;;;;;;4.80;2.28;;;13.70;99.90;;;13.18;100.00;101041.56;4168029;28;20033;-75
2023/07/07 02:11:57;;;;;;;3.40;1.95;;;13.70;99.90;;;13.11;100.00;101041.38;4168144;28;20077;-75
2023/07/07 02:13:58;;;;;;;5.28;2.60;;;13.60;99.90;;;13.09;100.00;101040.72;4167998;28;20111;-75
2023/07/07 02:15:58;;;;;;;7.78;2.25;;;13.60;99.90;;;13.02;100.00;101029.09;4185938;28;20036;-75
2023/07/07 02:18:00;;;;;;;4.90;2.65;;;13.60;99.90;;;12.96;100.00;101021.81;4168498;28;20095;-75
2023/07/07 02:20:03;;;;;;;4.38;2.28;;;13.60;99.90;;;12.96;100.00;101028.94;4167995;28;20127;-75
2023/07/07 02:22:04;;;;;;;4.10;2.63;;;13.50;99.90;;;12.80;100.00;101013.03;4200719;28;20021;-75
2023/07/07 02:24:05;;;;;;;4.75;2.60;;;13.50;99.90;;;12.76;100.00;101023.94;4185695;28;20043;-75
2023/07/07 02:26:06;;;;;;;4.60;2.30;;;13.40;99.90;;;12.76;100.00;101028.41;4184096;28;20037;-75
2023/07/07 02:28:07;;;;;;;3.72;2.33;;;13.30;99.90;;;12.69;100.00;101016.84;4185786;28;20028;-75
2023/07/07 02:30:08;;;;;;;4.63;2.58;;;13.30;99.90;;;12.74;100.00;101033.06;4167779;28;20077;-75
2023/07/07 02:32:09;;;;;;;4.72;2.50;;;13.20;99.90;;;12.70;100.00;101027.25;4184918;28;20032;-75
2023/07/07 02:34:10;;;;;;;4.38;2.10;;;13.30;99.90;;;12.70;100.00;101026.41;4151408;28;20033;-75
2023/07/07 02:36:11;;;;;;;3.00;2.25;;;13.20;99.90;;;12.60;100.00;101025.75;4185488;28;20025;-75
2023/07/07 02:38:12;;;;;;;6.38;3.13;;;13.20;99.90;;;12.52;100.00;101026.53;4167704;28;20036;-75
2023/07/07 02:40:15;;;;;;;2.85;2.45;;;13.10;99.90;;;12.52;100.00;101033.66;4185278;28;20021;-75
2023/07/07 02:42:16;;;;;;;4.57;2.10;;;13.10;99.90;;;12.31;100.00;101004.16;4185426;28;20043;-75
2023/07/07 02:44:18;;;;;;;3.67;2.28;;;13.00;99.90;;;12.37;100.00;101014.94;4184289;28;20088;-75
2023/07/07 02:46:18;;;;;;;6.60;2.95;;;13.00;99.90;;;12.41;100.00;101033.97;4167802;28;20037;-75
2023/07/07 02:48:21;;;;;;;3.38;2.28;;;13.00;99.90;;;12.40;100.00;101034.94;4168055;28;20025;-75
2023/07/07 02:50:22;;;;;;;3.00;2.13;;;12.90;99.90;;;12.38;100.00;101039.56;4167635;28;20143;-75
2023/07/07 02:52:22;;;;;;;4.28;2.60;;;12.90;99.90;;;12.34;100.00;101035.56;4185274;28;20460;-75
2023/07/07 02:54:23;;;;;;;3.17;2.88;;;12.90;99.90;;;12.30;100.00;101027.16;4167272;28;20108;-75
2023/07/07 02:56:24;;;;;;;4.18;2.72;;;12.90;99.90;;;12.33;100.00;101026.00;4167630;28;20040;-75
2023/07/07 02:58:25;;;;;;;4.55;2.33;;;12.90;99.90;;;12.35;100.00;101024.00;4151149;28;20501;-75
2023/07/07 03:00:26;;;;;;;5.90;2.80;;;12.90;99.90;;;12.42;100.00;101032.97;4185182;28;20063;-75
2023/07/07 03:02:27;;;;;;;7.25;2.80;;;12.90;99.90;;;12.40;100.00;101034.94;4185220;28;20439;-75
2023/07/07 03:04:28;;;;;;;7.50;3.03;;;12.90;99.90;;;12.37;100.00;101024.66;4185188;28;20028;-75
2023/07/07 03:06:29;;;;;;;5.30;2.80;;;12.90;99.90;;;12.39;100.00;101034.13;4167538;28;20021;-75
2023/07/07 03:08:30;;;;;;;4.43;2.80;;;12.90;99.90;;;12.35;100.00;101030.13;4167553;28;20059;-75
2023/07/07 03:10:35;;;;;;;4.25;2.38;;;12.90;99.90;;;12.39;100.00;101038.59;4184888;28;20025;-76
2023/07/07 03:12:36;;;;;;;5.07;2.58;;;12.90;99.90;;;12.36;100.00;101034.44;4185270;28;20059;-75
2023/07/07 03:14:37;;;;;;;3.63;2.67;;;12.90;99.90;;;12.32;100.00;101029.63;4184019;28;20025;-75
2023/07/07 03:16:46;;;;;;;5.93;2.70;;;12.90;99.90;;;12.35;100.00;101032.78;4185098;28;20029;-75
2023/07/07 03:18:52;;;;;;;3.38;2.67;;;12.90;99.90;;;12.28;100.00;101022.97;4167178;28;20402;-76
2023/07/07 03:20:53;;;;;;;4.22;2.70;;;12.90;99.90;;;12.25;100.00;101023.31;4151098;28;20052;-75
2023/07/07 03:22:55;;;;;;;6.25;2.50;;;12.80;99.90;;;12.27;100.00;101029.28;4167114;28;20054;-75
2023/07/07 03:24:56;;;;;;;5.63;2.88;;;12.80;99.90;;;12.23;100.00;101027.94;4166858;28;20083;-75
2023/07/07 03:26:57;;;;;;;5.13;2.55;;;12.80;99.90;;;12.24;100.00;101034.91;4151052;28;20026;-75
2023/07/07 03:28:58;;;;;;;4.57;2.40;;;12.80;99.90;;;12.12;100.00;101015.84;4185120;28;20025;-75
2023/07/07 03:31:17;;;;;;;3.80;2.78;;;12.70;99.90;;;12.14;100.00;101022.63;4185000;28;20036;-75
2023/07/07 03:33:18;;;;;;;5.10;2.75;;;12.70;99.90;;;12.02;100.00;101008.03;4168868;28;20017;-75
2023/07/07 03:35:19;;;;;;;3.47;2.90;;;12.70;99.90;;;12.11;100.00;101022.94;4183525;28;20029;-75
2023/07/07 03:37:20;;;;;;;5.00;3.17;;;12.70;99.90;;;11.96;100.00;101011.31;4167257;28;20081;-75
2023/07/07 03:39:21;;;;;;;4.00;2.95;;;12.60;99.90;;;12.05;100.00;101026.22;4167000;28;20037;-75
2023/07/07 03:41:26;;;;;;;4.82;3.00;;;12.60;99.90;;;12.04;100.00;101024.56;4184842;28;20044;-75
2023/07/07 03:43:26;;;;;;;4.10;2.08;;;12.60;99.90;;;12.01;100.00;101032.81;4170283;28;20065;-75
2023/07/07 03:45:27;;;;;;;2.95;2.33;;;12.60;99.90;;;11.95;100.00;101025.50;4187031;28;20036;-75
2023/07/07 03:47:28;;;;;;;3.70;2.60;;;12.50;99.90;;;11.86;100.00;101017.69;4188168;28;20029;-75
2023/07/07 03:49:29;;;;;;;5.43;2.80;;;12.50;99.90;;;11.84;100.00;101017.84;4170371;28;20049;-76
2023/07/07 03:51:34;;;;;;;4.88;3.05;;;12.40;99.90;;;11.81;100.00;101020.81;4188289;28;20037;-75
2023/07/07 03:53:37;;;;;;;3.72;2.80;;;12.40;99.90;;;11.74;100.00;101009.19;4171054;28;20036;-75
2023/07/07 03:55:38;;;;;;;4.13;2.67;;;12.40;99.90;;;11.73;100.00;101015.50;4170095;28;20032;-75
2023/07/07 03:57:39;;;;;;;4.53;3.28;;;12.30;99.90;;;11.72;100.00;101016.47;4187947;28;20025;-75
2023/07/07 03:59:39;;;;;;;5.50;3.25;;;12.30;99.90;;;11.73;100.00;101023.41;4153830;28;20029;-75
2023/07/07 04:01:40;;;;;;;4.70;2.97;;;12.30;99.90;;;11.72;100.00;101023.56;4169812;28;20036;-75
2023/07/07 04:03:43;;;;;;;7.55;3.30;;;12.30;99.90;;;11.70;100.00;101026.38;4187803;28;20492;-75
2023/07/07 04:05:46;;;;;;;3.90;2.70;;;12.30;99.90;;;11.61;100.00;101006.13;4202919;28;20020;-75
2023/07/07 04:07:47;;;;;;;4.68;3.05;;;12.30;99.90;;;11.57;100.00;101008.25;4170395;28;20080;-75
2023/07/07 04:09:48;;;;;;;3.90;2.80;;;12.30;99.90;;;11.61;100.00;101016.69;4169919;28;20025;-75
2023/07/07 04:11:49;;;;;;;6.10;3.85;;;12.30;99.90;;;11.63;100.00;101020.00;4170253;28;20021;-75
2023/07/07 04:13:51;;;;;;;4.95;2.88;;;12.20;99.90;;;11.64;100.00;101026.97;4170108;28;20014;-75
2023/07/07 04:16:04;;;;;;;3.78;2.90;;;12.20;99.90;;;11.56;100.00;101009.22;4169921;28;20033;-75
2023/07/07 04:18:05;;;;;;;4.95;2.58;;;12.20;99.90;;;11.62;100.00;101018.34;4170096;28;20029;-75
2023/07/07 04:20:08;;;;;;;3.53;3.00;;;12.20;99.90;;;11.59;100.00;101010.72;4169779;28;20074;-75
2023/07/07 04:22:09;;;;;;;7.95;3.20;;;12.20;99.90;;;11.58;100.00;101014.38;4187361;28;20040;-75
2023/07/07 04:24:09;;;;;;;4.72;2.67;;;12.20;99.90;;;11.58;100.00;101012.56;4169698;28;20037;-75
2023/07/07 04:26:12;;;;;;;4.20;2.55;;;12.20;99.90;;;11.53;100.00;101012.19;4187324;28;20107;-75
2023/07/07 04:28:13;;;;;;;3.47;2.83;;;12.20;99.90;;;11.58;100.00;101015.22;4169801;28;20033;-75
2023/07/07 04:30:14;;;;;;;3.65;2.58;;;12.10;99.90;;;11.59;100.00;101016.00;4187258;28;20090;-75
2023/07/07 04:32:15;;;;;;;4.72;2.95;;;12.10;99.90;;;11.55;100.00;101010.22;4169670;28;20032;-75
2023/07/07 04:34:16;;;;;;;4.20;3.10;;;12.20;99.90;;;11.58;100.00;101017.00;4169197;28;20021;-75
2023/07/07 04:36:18;;;;;;;5.85;2.95;;;12.20;99.90;;;11.60;100.00;101020.31;4169626;28;20029;-75
2023/07/07 04:38:22;;;;;;;5.55;2.90;;;12.20;99.90;;;11.53;100.00;101014.00;4187291;28;20057;-75
2023/07/07 04:40:22;;;;;;;3.38;2.88;;;12.10;99.90;;;11.56;100.00;101013.69;4169705;28;20021;-75
2023/07/07 04:42:24;;;;;;;3.72;2.80;;;12.10;99.90;;;11.48;100.00;101001.25;4169652;28;20365;-75
2023/07/07 04:44:25;;;;;;;4.18;3.05;;;12.10;99.90;;;11.56;100.00;101003.09;4187131;28;20029;-75
2023/07/07 04:46:38;;;;;;;4.57;2.30;;;12.20;99.90;;;11.64;100.00;101014.59;4185768;28;20032;-75
2023/07/07 04:48:42;;;;;;;4.00;2.78;;;12.20;99.90;;;11.61;100.00;101011.41;4169648;28;20034;-75
2023/07/07 04:50:43;;;;;;;4.55;2.70;;;12.20;99.90;;;11.68;100.00;101017.72;4187191;28;20115;-75
2023/07/07 04:52:44;;;;;;;4.28;3.00;;;12.20;99.90;;;11.71;100.00;101019.28;4186557;28;20481;-75
2023/07/07 04:54:47;;;;;;;6.68;3.20;;;12.20;99.90;;;11.73;100.00;101018.13;4186278;28;20086;-75
2023/07/07 04:56:48;;;;;;;4.68;2.90;;;12.30;99.90;;;11.78;100.00;101023.78;4153323;28;20026;-75
2023/07/07 04:58:51;;;;;;;6.05;2.90;;;12.30;99.90;;;11.76;100.00;101014.34;4169389;28;20389;-75
2023/07/07 05:01:04;;;;;;;3.60;2.65;;;12.30;99.90;;;11.81;100.00;101023.44;4169237;28;20037;-75
2023/07/07 05:03:05;;;;;;;4.50;2.80;;;12.40;99.90;;;11.85;100.00;101024.81;4186682;28;20032;-75
2023/07/07 05:05:07;;;;;;;5.10;3.00;;;12.40;99.90;;;11.85;100.00;101019.53;4186860;28;20037;-75
2023/07/07 05:07:07;;;;;;;4.50;2.65;;;12.40;99.90;;;11.91;100.00;101031.28;4202396;28;20095;-75
2023/07/07 05:09:14;;;;;;;5.00;2.78;;;12.40;99.90;;;11.92;100.00;101023.16;4186514;28;20063;-76
2023/07/07 05:11:22;;;;;;;4.30;2.83;;;12.40;99.90;;;11.98;100.00;101027.00;4169842;28;20529;-75
2023/07/07 05:13:23;;;;;;;3.45;2.60;;;12.50;99.90;;;12.01;100.00;101018.75;4169768;28;20084;-75
2023/07/07 05:15:24;;;;;;;3.78;2.78;;;12.50;99.90;;;12.02;100.00;101021.25;4169005;28;20468;-75
2023/07/07 05:17:25;;;;;;;3.67;3.00;;;12.60;99.90;;;12.09;100.00;101027.56;4169478;28;20128;-75
2023/07/07 05:19:26;;;;;;;4.60;3.30;;;12.60;99.90;;;12.09;100.00;101027.56;4186903;28;20029;-75
2023/07/07 05:21:27;;;;;;;5.70;3.25;;;12.60;99.90;;;12.16;100.00;101027.75;4186738;28;20078;-75
2023/07/07 05:23:28;;;;;;;4.20;3.08;;;12.70;99.90;;;12.20;100.00;101024.63;4169009;28;20155;-75
2023/07/07 05:25:29;;;;;;;4.30;2.90;;;12.70;99.90;;;12.26;100.00;101031.09;4168503;28;20022;-75
2023/07/07 05:27:30;;;;;;;5.18;3.05;;;12.80;99.90;;;12.30;100.00;101035.09;4169043;28;20033;-75
2023/07/07 05:29:31;;;;;;;4.13;2.92;;;12.80;99.90;;;12.34;100.00;101036.41;4168888;28;20504;-75
2023/07/07 05:31:33;;;;;;;5.32;2.92;;;12.90;99.90;;;12.44;100.00;101039.75;4152380;28;20393;-75
2023/07/07 05:33:38;;;;;;;5.78;3.20;;;12.90;99.90;;;12.51;100.00;101043.44;4168915;28;20063;-75
2023/07/07 05:35:58;;;;;;;5.03;2.92;;;13.00;99.90;;;12.58;100.00;101043.59;4186489;28;20370;-75
2023/07/07 05:38:00;;;;;;;4.13;3.20;;;13.10;99.90;;;12.66;100.00;101039.13;4169067;28;20036;-75
2023/07/07 05:40:01;;;;;;;7.95;3.65;;;13.10;99.90;;;12.72;100.00;101040.34;4168607;28;20048;-75
2023/07/07 05:42:02;;;;;;;4.55;4.05;;;13.20;99.90;;;12.81;100.00;101043.81;4168686;28;20041;-75
2023/07/07 05:44:03;;;;;;;4.47;3.45;;;13.20;99.90;;;12.84;100.00;101041.69;4186343;28;20052;-75
2023/07/07 05:46:12;;;;;;;5.30;3.25;;;13.30;99.90;;;12.91;100.00;101040.03;4162071;28;20029;-75
2023/07/07 05:48:14;;;;;;;3.53;2.70;;;13.40;99.90;;;12.94;100.00;101039.69;4152274;28;20026;-75
2023/07/07 05:50:15;;;;;;;6.68;3.80;;;13.40;99.90;;;13.01;100.00;101043.34;4152057;28;20025;-75
2023/07/07 05:52:16;;;;;;;5.40;3.65;;;13.50;99.90;;;12.97;100.00;101027.94;4179513;28;20485;-75
2023/07/07 05:54:17;;;;;;;7.07;4.28;;;13.50;99.90;;;13.05;100.00;101038.56;4168184;28;20044;-75
2023/07/07 05:56:24;;;;;;;5.50;4.15;;;13.50;99.90;;;13.11;100.00;101046.69;4185996;28;20028;-75
2023/07/07 05:58:25;;;;;;;5.35;3.92;;;13.60;99.90;;;13.16;100.00;101046.19;4168520;28;20586;-75
2023/07/07 06:00:28;;;;;;;8.98;3.83;;;13.60;99.90;;;13.20;100.00;101034.28;4186103;28;20017;-75
2023/07/07 06:02:29;;;;;;;5.50;3.83;;;13.70;99.90;;;13.26;100.00;101037.09;4168072;28;20108;-75
2023/07/07 06:04:30;;;;;;;5.22;3.30;;;13.70;99.90;;;13.34;100.00;101038.91;4186041;28;20512;-75
2023/07/07 06:06:31;;;;;;;3.20;2.90;;;13.80;99.90;;;13.44;100.00;101038.75;4167076;28;20068;-75
2023/07/07 06:08:32;;;;;;;5.43;3.47;;;13.90;99.90;;;13.44;100.00;101020.19;4185916;28;20027;-75
2023/07/07 06:10:33;;;;;;;5.80;3.50;;;13.90;99.90;;;13.57;100.00;101036.41;4185556;28;20082;-75
2023/07/07 06:12:35;;;;;;;5.60;3.88;;;14.00;99.90;;;13.52;100.00;101012.22;4185976;28;20431;-76
2023/07/07 06:14:36;;;;;;;7.20;4.20;;;14.10;99.90;;;13.73;100.00;101039.03;4168350;28;20591;-75
2023/07/07 06:16:37;;;;;;;6.00;4.05;;;14.20;99.90;;;13.79;100.00;101033.06;4167936;28;20026;-76
2023/07/07 06:18:39;;;;;;;7.07;3.75;;;14.20;99.90;;;13.81;100.00;101025.75;4167797;28;20525;-75
2023/07/07 06:20:40;;;;;;;5.90;3.90;;;14.30;99.90;;;13.92;100.00;101030.69;4185695;28;20112;-75
2023/07/07 06:22:41;;;;;;;6.72;4.22;;;14.40;99.90;;;14.01;100.00;101029.66;4151534;28;20037;-75
2023/07/07 06:24:42;;;;;;;6.10;4.10;;;14.50;99.90;;;14.05;100.00;101019.53;4185530;28;20137;-75
2023/07/07 06:26:43;;;;;;;6.07;3.75;;;14.50;99.90;;;14.14;100.00;101029.94;4151407;28;20149;-75
2023/07/07 06:28:44;;;;;;;5.93;4.63;;;14.60;99.90;;;14.23;100.00;101028.09;4185683;28;20524;-75
2023/07/07 06:30:50;;;;;;;6.97;4.68;;;14.70;99.90;;;14.25;100.00;101016.28;4185855;28;20110;-75
2023/07/07 06:32:51;;;;;;;9.13;4.50;;;14.80;99.90;;;14.40;100.00;101022.56;4168309;28;20022;-75
2023/07/07 06:34:52;;;;;;;6.90;4.45;;;14.80;99.90;;;14.46;100.00;101012.22;4167717;28;20033;-75
2023/07/07 06:36:53;;;;;;;6.30;4.68;;;14.90;99.90;;;14.48;100.00;101002.28;4167830;28;20116;-75
2023/07/07 06:38:54;;;;;;;8.50;5.25;;;15.00;99.90;;;14.52;100.00;101001.75;4167458;28;20425;-75
2023/07/07 06:40:55;;;;;;;7.63;4.63;;;15.10;99.90;;;14.76;100.00;101025.50;4185441;28;20032;-75
2023/07/07 06:42:58;;;;;;;6.50;4.55;;;15.20;99.90;;;14.80;100.00;101023.31;4185513;28;20040;-75
2023/07/07 06:44:58;;;;;;;6.70;4.40;;;15.30;99.90;;;14.82;100.00;101013.34;4167945;28;20120;-75
2023/07/07 06:47:00;;;;;;;6.57;4.60;;;15.30;99.90;;;14.92;100.00;101020.09;4200870;28;20028;-75
2023/07/07 06:49:02;;;;;;;6.68;3.85;;;15.40;99.90;;;15.00;100.00;101019.19;4183968;28;20025;-75
2023/07/07 06:51:03;;;;;;;4.93;4.13;;;15.50;99.90;;;15.08;100.00;101019.13;4185662;28;20017;-75
2023/07/07 06:53:05;;;;;;;6.05;3.85;;;15.60;99.90;;;15.15;100.00;101009.44;4185608;28;20029;-75
2023/07/07 06:55:06;;;;;;;5.93;3.20;;;15.60;99.90;;;15.24;100.00;101008.34;4184690;28;20029;-75
2023/07/07 06:57:09;;;;;;;4.35;3.25;;;15.70;99.90;;;15.32;100.00;101010.13;4201131;28;20379;-76
2023/07/07 06:59:10;;;;;;;3.85;2.78;;;15.80;99.90;;;15.37;100.00;101003.25;4167651;28;20037;-75
2023/07/07 07:01:12;;;;;;;6.93;3.47;;;15.90;99.90;;;15.42;100.00;101000.03;4185353;28;20044;-75
2023/07/07 07:03:12;;;;;;;4.85;3.78;;;15.90;99.90;;;15.53;100.00;101004.94;4185168;28;20036;-75
2023/07/07 07:05:14;;;;;;;6.53;3.30;;;16.00;99.90;;;15.62;100.00;101003.84;4190360;28;20428;-75
2023/07/07 07:07:14;;;;;;;7.85;2.65;;;16.10;99.90;;;15.72;100.00;101003.59;4200560;28;20662;-75
2023/07/07 07:09:15;;;;;;;5.82;3.47;;;16.20;99.90;;;15.75;100.00;100998.75;4185200;28;20029;-75
2023/07/07 07:11:16;;;;;;;7.60;3.20;;;16.30;99.90;;;15.78;100.00;100978.91;4185411;28;20063;-75
2023/07/07 07:13:17;;;;;;;4.07;3.00;;;16.40;99.90;;;15.97;100.00;100999.66;4183992;28;20021;-75
2023/07/07 07:15:18;;;;;;;3.95;2.42;;;16.40;99.90;;;16.05;100.00;101000.38;4185045;28;20025;-75
2023/07/07 07:17:20;;;;;;;6.90;3.60;;;16.50;99.90;;;16.12;100.00;101002.31;4201477;28;20029;-75
2023/07/07 07:19:21;;;;;;;6.88;3.03;;;16.60;99.90;;;16.22;100.00;101006.31;4170839;28;20075;-75
2023/07/07 07:21:22;;;;;;;5.40;3.72;;;16.70;99.90;;;16.31;100.00;101002.53;4188483;28;20082;-75
2023/07/07 07:23:23;;;;;;;5.40;3.38;;;16.80;99.90;;;16.44;100.00;101010.69;4170591;28;20084;-75
2023/07/07 07:25:24;;;;;;;4.45;2.42;;;16.90;99.90;;;16.43;100.00;100993.06;4170431;28;20077;-75
2023/07/07 07:27:25;;;;;;;4.00;2.67;;;17.00;99.90;;;16.63;100.00;101003.97;4170605;28;20021;-75
2023/07/07 07:29:26;;;;;;;6.57;2.90;;;17.10;99.90;;;16.70;100.00;100998.69;4188504;28;20021;-75
2023/07/07 07:31:26;;;;;;;4.40;3.20;;;17.20;99.90;;;16.82;100.00;101005.16;4170669;28;20408;-75
2023/07/07 07:33:27;;;;;;;4.68;3.13;;;17.30;99.90;;;16.91;100.00;100994.19;4188395;28;20029;-75
2023/07/07 07:35:28;;;;;;;4.60;2.88;;;17.40;99.90;;;17.03;100.00;100998.00;4170877;28;20060;-75
2023/07/07 07:37:29;;;;;;;9.02;4.20;;;17.50;99.90;;;17.17;100.00;100998.94;4170752;28;20041;-75
2023/07/07 07:39:31;;;;;;;5.63;3.35;;;17.60;99.90;;;17.22;100.00;100979.69;4188141;28;20043;-75
2023/07/07 07:41:31;;;;;;;5.55;3.45;;;17.80;99.90;;;17.32;100.00;100970.34;4188080;28;20112;-75
2023/07/07 07:43:32;;;;;;;6.47;3.53;;;17.90;99.90;;;17.52;100.00;100986.47;4188306;28;20036;-75
2023/07/07 07:45:33;;;;;;;7.22;3.58;;;18.00;99.90;;;17.71;100.00;100982.34;4170414;28;20083;-75
2023/07/07 07:47:35;;;;;;;3.92;2.78;;;18.20;99.90;;;17.86;100.00;100983.84;4170275;28;20021;-75
2023/07/07 07:49:36;;;;;;;4.95;3.10;;;18.30;99.90;;;17.94;100.00;100986.38;4188115;28;20021;-75
2023/07/07 07:51:38;;;;;;;3.90;2.97;;;18.50;99.90;;;18.05;100.00;100982.28;4188353;28;20025;-75
2023/07/07 07:53:39;;;;;;;7.68;3.30;;;18.50;99.90;;;18.16;100.00;100989.72;4188055;28;20021;-76
2023/07/07 07:55:40;;;;;;;5.78;2.42;;;18.60;99.90;;;18.19;100.00;100965.28;4153890;28;20076;-75
2023/07/07 07:57:43;;;;;;;4.53;2.80;;;18.80;99.90;;;18.42;100.00;100983.66;4170159;28;20064;-75
2023/07/07 07:59:43;;;;;;;4.75;3.00;;;18.90;99.90;;;18.49;100.00;100977.34;4187993;28;20458;-76
2023/07/07 08:01:44;;;;;;;5.07;3.10;;;19.00;99.90;;;18.61;100.00;100969.56;4170211;28;20030;-75
2023/07/07 08:03:45;;;;;;;6.85;3.10;;;19.10;99.90;;;18.71;100.00;100961.97;4186515;28;20451;-75
2023/07/07 08:05:46;;;;;;;5.43;2.80;;;19.20;99.90;;;18.82;100.00;100958.69;4169890;28;20464;-75
2023/07/07 08:07:47;;;;;;;5.18;2.38;;;19.40;99.90;;;19.03;100.00;100968.38;4186863;28;20017;-75
2023/07/07 08:09:48;;;;;;;6.22;2.92;;;19.50;99.90;;;19.16;100.00;100966.53;4187730;28;20028;-76
2023/07/07 08:11:49;;;;;;;9.15;3.00;;;19.60;99.90;;;19.29;100.00;100968.38;4170277;28;20025;-75
2023/07/07 08:13:50;;;;;;;13.32;3.33;;;19.70;99.90;;;19.46;100.00;100966.13;4169806;28;20120;-75
2023/07/07 08:15:51;;;;;;;12.25;2.90;;;19.90;99.90;;;19.59;100.00;100958.06;4187755;28;20029;-76
2023/07/07 08:17:51;;;;;;;7.15;2.85;;;20.00;99.90;;;19.77;100.00;100963.59;4186423;28;20087;-75
2023/07/07 08:19:54;;;;;;;7.88;3.05;;;20.20;99.90;;;19.94;100.00;100956.72;4153565;28;20072;-76
2023/07/07 08:21:57;;;;;;;6.13;2.40;;;20.30;99.90;;;20.08;100.00;100955.63;4187415;28;20068;-75
2023/07/07 08:23:58;;;;;;;4.55;2.88;;;20.50;99.90;;;20.27;100.00;100960.13;4169922;28;20108;-75
2023/07/07 08:25:59;;;;;;;4.13;2.45;;;20.60;99.90;;;20.49;95.30;100962.47;4187458;28;20083;-76